sensor_id;sensor_type;location;lat;lon;timestamp;P1;durP1;ratioP1;P2;durP2;ratioP2
11537;SDS011;50159;49.426;11.182;2022-12-05T00:01:32;16.47;;;11.97;;
11537;SDS011;50159;49.426;11.182;2022-12-05T00:04:09;15.17;;;11.83;;
11537;SDS011;50159;49.426;11.182;2022-12-05T00:06:39;16.57;;;12.43;;
11537;SDS011;50159;49.426;11.182;2022-12-05T00:09:08;15.63;;;12.10;;
11537;SDS011;50159;49.426;11.182;2022-12-05T00:11:37;18.30;;;13.40;;
11537;SDS011;50159;49.426;11.182;2022-12-05T00:14:08;15.37;;;12.73;;
11537;SDS011;50159;49.426;11.182;2022-12-05T00:16:37;18.83;;;13.30;;
11537;SDS011;50159;49.426;11.182;2022-12-05T00:19:06;20.10;;;13.37;;
11537;SDS011;50159;49.426;11.182;2022-12-05T00:21:35;16.40;;;13.17;;
11537;SDS011;50159;49.426;11.182;2022-12-05T00:24:04;17.30;;;13.03;;
11537;SDS011;50159;49.426;11.182;2022-12-05T00:26:34;20.43;;;14.03;;
11537;SDS011;50159;49.426;11.182;2022-12-05T00:29:01;18.43;;;13.63;;
11537;SDS011;50159;49.426;11.182;2022-12-05T00:31:28;18.47;;;13.40;;
11537;SDS011;50159;49.426;11.182;2022-12-05T00:33:58;19.63;;;13.37;;
11537;SDS011;50159;49.426;11.182;2022-12-05T00:36:27;19.07;;;13.20;;
11537;SDS011;50159;49.426;11.182;2022-12-05T00:38:58;20.00;;;13.67;;
11537;SDS011;50159;49.426;11.182;2022-12-05T00:41:27;21.50;;;13.97;;
11537;SDS011;50159;49.426;11.182;2022-12-05T00:43:56;19.73;;;13.27;;
11537;SDS011;50159;49.426;11.182;2022-12-05T00:46:26;22.63;;;14.93;;
11537;SDS011;50159;49.426;11.182;2022-12-05T00:48:56;24.33;;;15.43;;
11537;SDS011;50159;49.426;11.182;2022-12-05T00:51:29;22.80;;;14.80;;
11537;SDS011;50159;49.426;11.182;2022-12-05T00:54:00;20.43;;;14.13;;
11537;SDS011;50159;49.426;11.182;2022-12-05T00:56:31;18.57;;;12.27;;
11537;SDS011;50159;49.426;11.182;2022-12-05T00:58:59;18.77;;;13.40;;
11537;SDS011;50159;49.426;11.182;2022-12-05T01:01:30;16.20;;;12.37;;
11537;SDS011;50159;49.426;11.182;2022-12-05T01:04:05;19.43;;;13.97;;
11537;SDS011;50159;49.426;11.182;2022-12-05T01:06:36;18.23;;;12.93;;
11537;SDS011;50159;49.426;11.182;2022-12-05T01:09:04;21.33;;;13.20;;
11537;SDS011;50159;49.426;11.182;2022-12-05T01:11:31;20.33;;;13.47;;
11537;SDS011;50159;49.426;11.182;2022-12-05T01:14:06;20.97;;;13.37;;
11537;SDS011;50159;49.426;11.182;2022-12-05T01:16:39;22.17;;;14.00;;
11537;SDS011;50159;49.426;11.182;2022-12-05T01:19:12;20.67;;;13.63;;
11537;SDS011;50159;49.426;11.182;2022-12-05T01:21:43;19.70;;;14.23;;
11537;SDS011;50159;49.426;11.182;2022-12-05T01:24:10;24.97;;;16.23;;
11537;SDS011;50159;49.426;11.182;2022-12-05T01:26:37;25.47;;;16.37;;
11537;SDS011;50159;49.426;11.182;2022-12-05T01:29:06;24.93;;;15.70;;
11537;SDS011;50159;49.426;11.182;2022-12-05T01:31:34;22.30;;;15.10;;
11537;SDS011;50159;49.426;11.182;2022-12-05T01:34:03;25.83;;;15.70;;
11537;SDS011;50159;49.426;11.182;2022-12-05T01:36:33;22.17;;;14.83;;
11537;SDS011;50159;49.426;11.182;2022-12-05T01:39:00;29.33;;;18.10;;
11537;SDS011;50159;49.426;11.182;2022-12-05T01:41:30;25.77;;;17.13;;
11537;SDS011;50159;49.426;11.182;2022-12-05T01:44:02;25.27;;;15.70;;
11537;SDS011;50159;49.426;11.182;2022-12-05T01:46:37;21.73;;;15.70;;
11537;SDS011;50159;49.426;11.182;2022-12-05T01:49:14;24.90;;;15.33;;
11537;SDS011;50159;49.426;11.182;2022-12-05T01:51:45;24.37;;;16.17;;
11537;SDS011;50159;49.426;11.182;2022-12-05T01:54:16;23.23;;;15.20;;
11537;SDS011;50159;49.426;11.182;2022-12-05T01:56:45;24.97;;;15.30;;
11537;SDS011;50159;49.426;11.182;2022-12-05T01:59:26;23.93;;;16.43;;
11537;SDS011;50159;49.426;11.182;2022-12-05T02:01:57;29.93;;;18.23;;
11537;SDS011;50159;49.426;11.182;2022-12-05T02:04:24;24.70;;;16.43;;
11537;SDS011;50159;49.426;11.182;2022-12-05T02:06:53;23.80;;;16.30;;
11537;SDS011;50159;49.426;11.182;2022-12-05T02:09:20;24.53;;;14.93;;
11537;SDS011;50159;49.426;11.182;2022-12-05T02:11:50;24.40;;;16.27;;
11537;SDS011;50159;49.426;11.182;2022-12-05T02:17:48;23.73;;;16.33;;
11537;SDS011;50159;49.426;11.182;2022-12-05T02:23:46;26.83;;;17.17;;
11537;SDS011;50159;49.426;11.182;2022-12-05T02:30:24;28.10;;;17.13;;
11537;SDS011;50159;49.426;11.182;2022-12-05T02:38:34;27.27;;;16.20;;
11537;SDS011;50159;49.426;11.182;2022-12-05T02:41:25;22.97;;;14.60;;
11537;SDS011;50159;49.426;11.182;2022-12-05T02:44:07;23.67;;;14.87;;
11537;SDS011;50159;49.426;11.182;2022-12-05T02:46:46;25.70;;;15.97;;
11537;SDS011;50159;49.426;11.182;2022-12-05T02:49:21;22.87;;;15.57;;
11537;SDS011;50159;49.426;11.182;2022-12-05T02:51:56;27.43;;;15.67;;
11537;SDS011;50159;49.426;11.182;2022-12-05T02:54:26;23.27;;;15.03;;
11537;SDS011;50159;49.426;11.182;2022-12-05T02:57:14;27.17;;;14.67;;
11537;SDS011;50159;49.426;11.182;2022-12-05T02:59:43;23.60;;;14.73;;
11537;SDS011;50159;49.426;11.182;2022-12-05T03:02:23;16.57;;;13.37;;
11537;SDS011;50159;49.426;11.182;2022-12-05T03:04:57;18.90;;;14.53;;
11537;SDS011;50159;49.426;11.182;2022-12-05T03:07:43;23.87;;;15.00;;
11537;SDS011;50159;49.426;11.182;2022-12-05T03:10:14;20.63;;;13.17;;
11537;SDS011;50159;49.426;11.182;2022-12-05T03:12:49;20.87;;;13.23;;
11537;SDS011;50159;49.426;11.182;2022-12-05T03:15:23;14.33;;;11.73;;
11537;SDS011;50159;49.426;11.182;2022-12-05T03:18:07;15.13;;;12.57;;
11537;SDS011;50159;49.426;11.182;2022-12-05T03:20:43;15.90;;;12.23;;
11537;SDS011;50159;49.426;11.182;2022-12-05T03:23:17;16.47;;;11.83;;
11537;SDS011;50159;49.426;11.182;2022-12-05T03:29:32;15.03;;;11.80;;
11537;SDS011;50159;49.426;11.182;2022-12-05T03:32:23;13.50;;;10.57;;
11537;SDS011;50159;49.426;11.182;2022-12-05T03:35:17;12.87;;;9.80;;
11537;SDS011;50159;49.426;11.182;2022-12-05T03:38:02;10.53;;;8.80;;
11537;SDS011;50159;49.426;11.182;2022-12-05T03:40:59;9.33;;;8.37;;
11537;SDS011;50159;49.426;11.182;2022-12-05T03:44:04;10.40;;;9.30;;
11537;SDS011;50159;49.426;11.182;2022-12-05T03:46:40;11.20;;;9.27;;
11537;SDS011;50159;49.426;11.182;2022-12-05T03:49:29;15.50;;;10.07;;
11537;SDS011;50159;49.426;11.182;2022-12-05T03:52:07;10.00;;;8.97;;
11537;SDS011;50159;49.426;11.182;2022-12-05T03:54:54;11.13;;;8.47;;
11537;SDS011;50159;49.426;11.182;2022-12-05T03:57:32;11.73;;;8.37;;
11537;SDS011;50159;49.426;11.182;2022-12-05T04:00:19;9.43;;;8.43;;
11537;SDS011;50159;49.426;11.182;2022-12-05T04:03:05;10.87;;;8.80;;
11537;SDS011;50159;49.426;11.182;2022-12-05T04:08:33;8.53;;;7.70;;
11537;SDS011;50159;49.426;11.182;2022-12-05T04:11:13;11.80;;;8.57;;
11537;SDS011;50159;49.426;11.182;2022-12-05T04:14:28;9.97;;;8.77;;
11537;SDS011;50159;49.426;11.182;2022-12-05T04:16:41;8.83;;;7.93;;
11537;SDS011;50159;49.426;11.182;2022-12-05T04:19:30;9.83;;;8.43;;
11537;SDS011;50159;49.426;11.182;2022-12-05T04:22:30;7.73;;;6.97;;
11537;SDS011;50159;49.426;11.182;2022-12-05T04:25:00;8.20;;;7.40;;
11537;SDS011;50159;49.426;11.182;2022-12-05T04:27:58;9.73;;;7.37;;
11537;SDS011;50159;49.426;11.182;2022-12-05T04:33:44;8.60;;;6.80;;
11537;SDS011;50159;49.426;11.182;2022-12-05T04:36:22;6.93;;;6.27;;
11537;SDS011;50159;49.426;11.182;2022-12-05T04:39:11;7.80;;;6.97;;
11537;SDS011;50159;49.426;11.182;2022-12-05T04:44:25;9.97;;;7.20;;
11537;SDS011;50159;49.426;11.182;2022-12-05T04:46:58;8.80;;;6.90;;
11537;SDS011;50159;49.426;11.182;2022-12-05T04:49:30;8.10;;;7.30;;
11537;SDS011;50159;49.426;11.182;2022-12-05T04:52:01;12.77;;;7.53;;
11537;SDS011;50159;49.426;11.182;2022-12-05T04:54:36;8.27;;;6.67;;
11537;SDS011;50159;49.426;11.182;2022-12-05T04:57:10;11.87;;;7.30;;
11537;SDS011;50159;49.426;11.182;2022-12-05T04:59:49;8.07;;;6.73;;
11537;SDS011;50159;49.426;11.182;2022-12-05T05:02:18;7.57;;;6.73;;
11537;SDS011;50159;49.426;11.182;2022-12-05T05:04:56;7.53;;;6.83;;
11537;SDS011;50159;49.426;11.182;2022-12-05T05:07:26;9.13;;;7.40;;
11537;SDS011;50159;49.426;11.182;2022-12-05T05:09:54;8.53;;;7.57;;
11537;SDS011;50159;49.426;11.182;2022-12-05T05:12:22;7.40;;;6.67;;
11537;SDS011;50159;49.426;11.182;2022-12-05T05:14:49;12.30;;;7.10;;
11537;SDS011;50159;49.426;11.182;2022-12-05T05:17:16;12.50;;;7.70;;
11537;SDS011;50159;49.426;11.182;2022-12-05T05:19:42;8.40;;;6.87;;
11537;SDS011;50159;49.426;11.182;2022-12-05T05:22:09;8.00;;;6.30;;
11537;SDS011;50159;49.426;11.182;2022-12-05T05:24:36;9.17;;;6.97;;
11537;SDS011;50159;49.426;11.182;2022-12-05T05:27:02;8.13;;;6.80;;
11537;SDS011;50159;49.426;11.182;2022-12-05T05:29:29;9.77;;;6.97;;
11537;SDS011;50159;49.426;11.182;2022-12-05T05:31:56;7.20;;;6.50;;
11537;SDS011;50159;49.426;11.182;2022-12-05T05:34:23;7.90;;;6.90;;
11537;SDS011;50159;49.426;11.182;2022-12-05T05:36:51;10.93;;;7.43;;
11537;SDS011;50159;49.426;11.182;2022-12-05T05:39:18;7.07;;;6.37;;
11537;SDS011;50159;49.426;11.182;2022-12-05T05:41:45;7.40;;;6.60;;
11537;SDS011;50159;49.426;11.182;2022-12-05T05:44:11;6.23;;;5.60;;
11537;SDS011;50159;49.426;11.182;2022-12-05T05:46:38;6.17;;;5.40;;
11537;SDS011;50159;49.426;11.182;2022-12-05T05:49:05;7.43;;;6.23;;
11537;SDS011;50159;49.426;11.182;2022-12-05T05:51:32;6.70;;;5.80;;
11537;SDS011;50159;49.426;11.182;2022-12-05T05:53:59;7.80;;;6.00;;
11537;SDS011;50159;49.426;11.182;2022-12-05T05:56:26;6.43;;;5.63;;
11537;SDS011;50159;49.426;11.182;2022-12-05T05:59:04;6.70;;;6.10;;
11537;SDS011;50159;49.426;11.182;2022-12-05T06:01:30;7.23;;;6.33;;
11537;SDS011;50159;49.426;11.182;2022-12-05T06:03:57;8.20;;;6.50;;
11537;SDS011;50159;49.426;11.182;2022-12-05T06:06:25;7.33;;;6.60;;
11537;SDS011;50159;49.426;11.182;2022-12-05T06:08:52;8.13;;;6.77;;
11537;SDS011;50159;49.426;11.182;2022-12-05T06:11:21;7.47;;;6.70;;
11537;SDS011;50159;49.426;11.182;2022-12-05T06:13:55;9.70;;;7.37;;
11537;SDS011;50159;49.426;11.182;2022-12-05T06:16:28;12.97;;;7.77;;
11537;SDS011;50159;49.426;11.182;2022-12-05T06:18:56;10.07;;;7.63;;
11537;SDS011;50159;49.426;11.182;2022-12-05T06:21:23;8.83;;;7.60;;
11537;SDS011;50159;49.426;11.182;2022-12-05T06:23:51;8.50;;;7.20;;
11537;SDS011;50159;49.426;11.182;2022-12-05T06:26:19;11.97;;;7.80;;
11537;SDS011;50159;49.426;11.182;2022-12-05T06:28:47;9.57;;;7.97;;
11537;SDS011;50159;49.426;11.182;2022-12-05T06:31:16;9.53;;;7.00;;
11537;SDS011;50159;49.426;11.182;2022-12-05T06:33:46;13.30;;;7.43;;
11537;SDS011;50159;49.426;11.182;2022-12-05T06:36:14;8.70;;;7.80;;
11537;SDS011;50159;49.426;11.182;2022-12-05T06:38:44;12.07;;;8.80;;
11537;SDS011;50159;49.426;11.182;2022-12-05T06:41:15;8.27;;;7.10;;
11537;SDS011;50159;49.426;11.182;2022-12-05T06:43:44;9.97;;;7.63;;
11537;SDS011;50159;49.426;11.182;2022-12-05T06:46:12;11.97;;;8.70;;
11537;SDS011;50159;49.426;11.182;2022-12-05T06:48:41;18.43;;;9.87;;
11537;SDS011;50159;49.426;11.182;2022-12-05T06:51:08;14.17;;;9.80;;
11537;SDS011;50159;49.426;11.182;2022-12-05T06:53:38;10.73;;;8.60;;
11537;SDS011;50159;49.426;11.182;2022-12-05T06:56:06;12.17;;;8.20;;
11537;SDS011;50159;49.426;11.182;2022-12-05T06:58:37;11.63;;;8.77;;
11537;SDS011;50159;49.426;11.182;2022-12-05T07:01:04;14.00;;;9.07;;
11537;SDS011;50159;49.426;11.182;2022-12-05T07:03:49;12.37;;;8.77;;
11537;SDS011;50159;49.426;11.182;2022-12-05T07:06:16;15.13;;;9.57;;
11537;SDS011;50159;49.426;11.182;2022-12-05T07:08:49;15.87;;;11.10;;
11537;SDS011;50159;49.426;11.182;2022-12-05T07:11:16;15.53;;;11.23;;
11537;SDS011;50159;49.426;11.182;2022-12-05T07:13:43;20.20;;;12.83;;
11537;SDS011;50159;49.426;11.182;2022-12-05T07:16:09;22.53;;;14.83;;
11537;SDS011;50159;49.426;11.182;2022-12-05T07:18:37;17.10;;;11.03;;
11537;SDS011;50159;49.426;11.182;2022-12-05T07:21:05;21.00;;;13.23;;
11537;SDS011;50159;49.426;11.182;2022-12-05T07:23:38;19.47;;;12.73;;
11537;SDS011;50159;49.426;11.182;2022-12-05T07:26:07;20.07;;;12.60;;
11537;SDS011;50159;49.426;11.182;2022-12-05T07:28:37;15.13;;;11.43;;
11537;SDS011;50159;49.426;11.182;2022-12-05T07:31:05;14.87;;;11.63;;
11537;SDS011;50159;49.426;11.182;2022-12-05T07:33:35;13.63;;;9.67;;
11537;SDS011;50159;49.426;11.182;2022-12-05T07:36:04;15.47;;;10.67;;
11537;SDS011;50159;49.426;11.182;2022-12-05T07:38:34;13.03;;;9.27;;
11537;SDS011;50159;49.426;11.182;2022-12-05T07:41:05;11.63;;;9.17;;
11537;SDS011;50159;49.426;11.182;2022-12-05T07:43:39;11.50;;;8.97;;
11537;SDS011;50159;49.426;11.182;2022-12-05T07:46:07;12.30;;;9.20;;
11537;SDS011;50159;49.426;11.182;2022-12-05T07:48:38;13.97;;;9.50;;
11537;SDS011;50159;49.426;11.182;2022-12-05T07:51:07;12.23;;;9.10;;
11537;SDS011;50159;49.426;11.182;2022-12-05T07:53:36;10.30;;;8.33;;
11537;SDS011;50159;49.426;11.182;2022-12-05T07:56:05;14.27;;;9.47;;
11537;SDS011;50159;49.426;11.182;2022-12-05T07:58:33;12.27;;;8.97;;
11537;SDS011;50159;49.426;11.182;2022-12-05T08:01:04;14.10;;;9.53;;
11537;SDS011;50159;49.426;11.182;2022-12-05T08:03:34;17.23;;;9.83;;
11537;SDS011;50159;49.426;11.182;2022-12-05T08:06:08;18.57;;;10.17;;
11537;SDS011;50159;49.426;11.182;2022-12-05T08:08:38;13.43;;;9.80;;
11537;SDS011;50159;49.426;11.182;2022-12-05T08:11:09;17.30;;;11.67;;
11537;SDS011;50159;49.426;11.182;2022-12-05T08:13:39;15.20;;;9.73;;
11537;SDS011;50159;49.426;11.182;2022-12-05T08:16:09;16.37;;;12.37;;
11537;SDS011;50159;49.426;11.182;2022-12-05T08:18:39;18.07;;;11.47;;
11537;SDS011;50159;49.426;11.182;2022-12-05T08:21:08;13.53;;;9.60;;
11537;SDS011;50159;49.426;11.182;2022-12-05T08:23:43;17.77;;;9.67;;
11537;SDS011;50159;49.426;11.182;2022-12-05T08:26:15;15.67;;;9.93;;
11537;SDS011;50159;49.426;11.182;2022-12-05T08:28:52;15.60;;;10.17;;
11537;SDS011;50159;49.426;11.182;2022-12-05T08:31:25;19.53;;;10.40;;
11537;SDS011;50159;49.426;11.182;2022-12-05T08:33:58;16.67;;;10.70;;
11537;SDS011;50159;49.426;11.182;2022-12-05T08:36:26;17.27;;;10.50;;
11537;SDS011;50159;49.426;11.182;2022-12-05T08:38:56;18.03;;;10.83;;
11537;SDS011;50159;49.426;11.182;2022-12-05T08:41:25;14.73;;;10.37;;
11537;SDS011;50159;49.426;11.182;2022-12-05T08:43:55;18.13;;;11.10;;
11537;SDS011;50159;49.426;11.182;2022-12-05T08:46:24;17.43;;;10.57;;
11537;SDS011;50159;49.426;11.182;2022-12-05T08:48:51;20.93;;;11.70;;
11537;SDS011;50159;49.426;11.182;2022-12-05T08:51:18;17.77;;;10.80;;
11537;SDS011;50159;49.426;11.182;2022-12-05T08:53:44;19.00;;;11.03;;
11537;SDS011;50159;49.426;11.182;2022-12-05T08:56:12;18.23;;;11.30;;
11537;SDS011;50159;49.426;11.182;2022-12-05T08:58:39;18.50;;;12.20;;
11537;SDS011;50159;49.426;11.182;2022-12-05T09:01:14;19.27;;;11.53;;
11537;SDS011;50159;49.426;11.182;2022-12-05T09:03:46;14.93;;;10.67;;
11537;SDS011;50159;49.426;11.182;2022-12-05T09:06:15;18.23;;;11.30;;
11537;SDS011;50159;49.426;11.182;2022-12-05T09:08:48;16.40;;;10.73;;
11537;SDS011;50159;49.426;11.182;2022-12-05T09:11:21;16.93;;;11.37;;
11537;SDS011;50159;49.426;11.182;2022-12-05T09:13:52;18.67;;;11.93;;
11537;SDS011;50159;49.426;11.182;2022-12-05T09:16:22;20.10;;;12.00;;
11537;SDS011;50159;49.426;11.182;2022-12-05T09:19:02;18.20;;;11.13;;
11537;SDS011;50159;49.426;11.182;2022-12-05T09:21:30;22.77;;;12.97;;
11537;SDS011;50159;49.426;11.182;2022-12-05T09:23:57;20.07;;;12.13;;
11537;SDS011;50159;49.426;11.182;2022-12-05T09:26:26;18.23;;;11.50;;
11537;SDS011;50159;49.426;11.182;2022-12-05T09:28:54;18.73;;;10.83;;
11537;SDS011;50159;49.426;11.182;2022-12-05T09:31:24;19.37;;;11.50;;
11537;SDS011;50159;49.426;11.182;2022-12-05T09:33:55;17.73;;;11.13;;
11537;SDS011;50159;49.426;11.182;2022-12-05T09:36:26;16.60;;;10.93;;
11537;SDS011;50159;49.426;11.182;2022-12-05T09:38:58;20.30;;;11.50;;
11537;SDS011;50159;49.426;11.182;2022-12-05T09:52:54;14.93;;;10.87;;
11537;SDS011;50159;49.426;11.182;2022-12-05T09:56:03;22.00;;;11.87;;
11537;SDS011;50159;49.426;11.182;2022-12-05T09:58:51;18.20;;;12.40;;
11537;SDS011;50159;49.426;11.182;2022-12-05T10:04:26;14.97;;;10.13;;
11537;SDS011;50159;49.426;11.182;2022-12-05T10:07:08;15.83;;;11.43;;
11537;SDS011;50159;49.426;11.182;2022-12-05T10:09:47;16.10;;;10.53;;
11537;SDS011;50159;49.426;11.182;2022-12-05T10:15:52;15.33;;;10.73;;
11537;SDS011;50159;49.426;11.182;2022-12-05T10:26:24;14.93;;;9.97;;
11537;SDS011;50159;49.426;11.182;2022-12-05T10:32:02;13.90;;;9.50;;
11537;SDS011;50159;49.426;11.182;2022-12-05T10:34:41;13.87;;;9.40;;
11537;SDS011;50159;49.426;11.182;2022-12-05T10:37:20;14.60;;;10.40;;
11537;SDS011;50159;49.426;11.182;2022-12-05T10:39:49;14.17;;;10.30;;
11537;SDS011;50159;49.426;11.182;2022-12-05T10:42:22;13.40;;;9.60;;
11537;SDS011;50159;49.426;11.182;2022-12-05T10:44:57;15.33;;;10.33;;
11537;SDS011;50159;49.426;11.182;2022-12-05T10:47:30;14.30;;;8.97;;
11537;SDS011;50159;49.426;11.182;2022-12-05T10:49:59;15.03;;;9.50;;
11537;SDS011;50159;49.426;11.182;2022-12-05T10:52:42;11.63;;;9.23;;
11537;SDS011;50159;49.426;11.182;2022-12-05T10:55:12;11.63;;;9.27;;
11537;SDS011;50159;49.426;11.182;2022-12-05T10:57:43;13.77;;;9.00;;
11537;SDS011;50159;49.426;11.182;2022-12-05T11:00:41;10.87;;;8.43;;
11537;SDS011;50159;49.426;11.182;2022-12-05T11:05:53;12.37;;;9.30;;
11537;SDS011;50159;49.426;11.182;2022-12-05T11:08:39;12.23;;;8.73;;
11537;SDS011;50159;49.426;11.182;2022-12-05T11:11:27;17.60;;;10.23;;
11537;SDS011;50159;49.426;11.182;2022-12-05T11:14:21;13.60;;;9.77;;
11537;SDS011;50159;49.426;11.182;2022-12-05T11:16:51;11.67;;;9.33;;
11537;SDS011;50159;49.426;11.182;2022-12-05T11:19:24;10.23;;;8.10;;
11537;SDS011;50159;49.426;11.182;2022-12-05T11:21:54;13.83;;;10.23;;
11537;SDS011;50159;49.426;11.182;2022-12-05T11:24:24;13.93;;;9.13;;
11537;SDS011;50159;49.426;11.182;2022-12-05T11:26:57;13.47;;;9.60;;
11537;SDS011;50159;49.426;11.182;2022-12-05T11:29:46;10.50;;;8.33;;
11537;SDS011;50159;49.426;11.182;2022-12-05T11:32:37;12.17;;;9.37;;
11537;SDS011;50159;49.426;11.182;2022-12-05T11:40:24;17.03;;;9.83;;
11537;SDS011;50159;49.426;11.182;2022-12-05T11:55:51;12.77;;;9.10;;
11537;SDS011;50159;49.426;11.182;2022-12-05T11:58:40;9.67;;;7.63;;
11537;SDS011;50159;49.426;11.182;2022-12-05T12:05:18;14.90;;;8.77;;
11537;SDS011;50159;49.426;11.182;2022-12-05T12:08:26;15.77;;;9.57;;
11537;SDS011;50159;49.426;11.182;2022-12-05T12:14:09;14.37;;;8.67;;
11537;SDS011;50159;49.426;11.182;2022-12-05T12:25:40;12.77;;;8.40;;
11537;SDS011;50159;49.426;11.182;2022-12-05T12:31:33;11.30;;;8.23;;
11537;SDS011;50159;49.426;11.182;2022-12-05T12:52:22;13.53;;;9.20;;
11537;SDS011;50159;49.426;11.182;2022-12-05T12:58:10;12.43;;;9.07;;
11537;SDS011;50159;49.426;11.182;2022-12-05T13:01:10;13.20;;;10.37;;
11537;SDS011;50159;49.426;11.182;2022-12-05T13:03:55;14.47;;;10.30;;
11537;SDS011;50159;49.426;11.182;2022-12-05T13:06:43;16.80;;;9.53;;
11537;SDS011;50159;49.426;11.182;2022-12-05T13:09:18;14.70;;;10.27;;
11537;SDS011;50159;49.426;11.182;2022-12-05T13:12:18;12.07;;;9.07;;
11537;SDS011;50159;49.426;11.182;2022-12-05T13:15:01;11.87;;;8.80;;
11537;SDS011;50159;49.426;11.182;2022-12-05T13:17:35;8.17;;;7.03;;
11537;SDS011;50159;49.426;11.182;2022-12-05T13:20:17;13.50;;;9.50;;
11537;SDS011;50159;49.426;11.182;2022-12-05T13:22:48;9.77;;;8.43;;
11537;SDS011;50159;49.426;11.182;2022-12-05T13:25:18;17.20;;;9.20;;
11537;SDS011;50159;49.426;11.182;2022-12-05T13:27:53;10.63;;;9.03;;
11537;SDS011;50159;49.426;11.182;2022-12-05T13:30:23;11.30;;;8.77;;
11537;SDS011;50159;49.426;11.182;2022-12-05T13:32:57;13.97;;;8.90;;
11537;SDS011;50159;49.426;11.182;2022-12-05T13:35:35;13.77;;;8.97;;
11537;SDS011;50159;49.426;11.182;2022-12-05T13:38:29;10.70;;;8.17;;
11537;SDS011;50159;49.426;11.182;2022-12-05T13:41:20;10.83;;;8.80;;
11537;SDS011;50159;49.426;11.182;2022-12-05T13:44:05;11.83;;;9.40;;
11537;SDS011;50159;49.426;11.182;2022-12-05T13:46:40;11.83;;;8.57;;
11537;SDS011;50159;49.426;11.182;2022-12-05T13:49:16;10.50;;;8.97;;
11537;SDS011;50159;49.426;11.182;2022-12-05T13:55:01;10.20;;;8.17;;
11537;SDS011;50159;49.426;11.182;2022-12-05T13:57:45;10.13;;;8.60;;
11537;SDS011;50159;49.426;11.182;2022-12-05T14:10:15;9.30;;;8.20;;
11537;SDS011;50159;49.426;11.182;2022-12-05T14:15:41;13.07;;;8.87;;
11537;SDS011;50159;49.426;11.182;2022-12-05T14:18:14;10.77;;;8.23;;
11537;SDS011;50159;49.426;11.182;2022-12-05T14:23:47;11.80;;;9.03;;
11537;SDS011;50159;49.426;11.182;2022-12-05T14:26:28;15.80;;;9.83;;
11537;SDS011;50159;49.426;11.182;2022-12-05T14:32:30;11.30;;;8.70;;
11537;SDS011;50159;49.426;11.182;2022-12-05T14:35:11;14.47;;;9.47;;
11537;SDS011;50159;49.426;11.182;2022-12-05T14:37:49;10.93;;;8.63;;
11537;SDS011;50159;49.426;11.182;2022-12-05T14:40:28;15.63;;;9.60;;
11537;SDS011;50159;49.426;11.182;2022-12-05T14:43:05;12.63;;;9.03;;
11537;SDS011;50159;49.426;11.182;2022-12-05T14:46:07;12.93;;;8.40;;
11537;SDS011;50159;49.426;11.182;2022-12-05T14:48:52;11.33;;;9.00;;
11537;SDS011;50159;49.426;11.182;2022-12-05T14:54:02;10.90;;;8.27;;
11537;SDS011;50159;49.426;11.182;2022-12-05T14:56:41;10.27;;;8.57;;
11537;SDS011;50159;49.426;11.182;2022-12-05T14:59:21;13.37;;;8.97;;
11537;SDS011;50159;49.426;11.182;2022-12-05T15:02:13;12.03;;;9.97;;
11537;SDS011;50159;49.426;11.182;2022-12-05T15:05:30;15.50;;;11.37;;
11537;SDS011;50159;49.426;11.182;2022-12-05T15:07:47;14.97;;;9.30;;
11537;SDS011;50159;49.426;11.182;2022-12-05T15:10:20;13.33;;;9.50;;
11537;SDS011;50159;49.426;11.182;2022-12-05T15:12:56;16.67;;;10.10;;
11537;SDS011;50159;49.426;11.182;2022-12-05T15:16:06;12.47;;;9.57;;
11537;SDS011;50159;49.426;11.182;2022-12-05T15:18:45;16.00;;;9.60;;
11537;SDS011;50159;49.426;11.182;2022-12-05T15:21:24;12.10;;;9.57;;
11537;SDS011;50159;49.426;11.182;2022-12-05T15:29:29;13.80;;;9.83;;
11537;SDS011;50159;49.426;11.182;2022-12-05T15:32:02;13.87;;;9.37;;
11537;SDS011;50159;49.426;11.182;2022-12-05T15:34:44;14.13;;;10.67;;
11537;SDS011;50159;49.426;11.182;2022-12-05T15:37:33;16.47;;;10.50;;
11537;SDS011;50159;49.426;11.182;2022-12-05T15:40:14;12.63;;;10.37;;
11537;SDS011;50159;49.426;11.182;2022-12-05T15:42:48;17.30;;;12.00;;
11537;SDS011;50159;49.426;11.182;2022-12-05T15:45:26;13.77;;;10.43;;
11537;SDS011;50159;49.426;11.182;2022-12-05T15:50:29;14.40;;;9.97;;
11537;SDS011;50159;49.426;11.182;2022-12-05T15:53:10;17.40;;;11.27;;
11537;SDS011;50159;49.426;11.182;2022-12-05T15:55:55;16.67;;;10.73;;
11537;SDS011;50159;49.426;11.182;2022-12-05T15:58:35;15.63;;;10.63;;
11537;SDS011;50159;49.426;11.182;2022-12-05T16:01:20;16.53;;;10.93;;
11537;SDS011;50159;49.426;11.182;2022-12-05T16:04:00;20.27;;;12.87;;
11537;SDS011;50159;49.426;11.182;2022-12-05T16:06:38;25.03;;;13.63;;
11537;SDS011;50159;49.426;11.182;2022-12-05T16:09:17;20.13;;;12.43;;
11537;SDS011;50159;49.426;11.182;2022-12-05T16:11:54;18.10;;;12.13;;
11537;SDS011;50159;49.426;11.182;2022-12-05T16:14:27;19.00;;;13.30;;
11537;SDS011;50159;49.426;11.182;2022-12-05T16:17:19;19.00;;;11.77;;
11537;SDS011;50159;49.426;11.182;2022-12-05T16:19:47;20.17;;;12.30;;
11537;SDS011;50159;49.426;11.182;2022-12-05T16:22:21;17.97;;;11.73;;
11537;SDS011;50159;49.426;11.182;2022-12-05T16:24:59;18.80;;;11.63;;
11537;SDS011;50159;49.426;11.182;2022-12-05T16:27:35;16.00;;;11.23;;
11537;SDS011;50159;49.426;11.182;2022-12-05T16:32:37;23.40;;;15.53;;
11537;SDS011;50159;49.426;11.182;2022-12-05T16:46:04;14.70;;;12.13;;
11537;SDS011;50159;49.426;11.182;2022-12-05T16:48:36;17.63;;;12.67;;
11537;SDS011;50159;49.426;11.182;2022-12-05T16:51:18;17.83;;;11.50;;
11537;SDS011;50159;49.426;11.182;2022-12-05T16:53:51;17.97;;;11.93;;
11537;SDS011;50159;49.426;11.182;2022-12-05T16:56:24;22.00;;;13.20;;
11537;SDS011;50159;49.426;11.182;2022-12-05T16:58:57;23.13;;;16.23;;
11537;SDS011;50159;49.426;11.182;2022-12-05T17:01:28;24.17;;;15.47;;
11537;SDS011;50159;49.426;11.182;2022-12-05T17:04:00;23.97;;;15.00;;
11537;SDS011;50159;49.426;11.182;2022-12-05T17:06:27;18.73;;;12.53;;
11537;SDS011;50159;49.426;11.182;2022-12-05T17:08:54;17.60;;;12.93;;
11537;SDS011;50159;49.426;11.182;2022-12-05T17:11:22;17.70;;;12.00;;
11537;SDS011;50159;49.426;11.182;2022-12-05T17:13:59;18.23;;;12.30;;
11537;SDS011;50159;49.426;11.182;2022-12-05T17:16:26;15.83;;;11.63;;
11537;SDS011;50159;49.426;11.182;2022-12-05T17:18:53;16.00;;;11.67;;
11537;SDS011;50159;49.426;11.182;2022-12-05T17:21:21;16.30;;;11.23;;
11537;SDS011;50159;49.426;11.182;2022-12-05T17:23:52;12.93;;;10.00;;
11537;SDS011;50159;49.426;11.182;2022-12-05T17:26:19;12.30;;;9.57;;
11537;SDS011;50159;49.426;11.182;2022-12-05T17:28:47;11.13;;;9.50;;
11537;SDS011;50159;49.426;11.182;2022-12-05T17:31:16;14.27;;;10.57;;
11537;SDS011;50159;49.426;11.182;2022-12-05T17:33:46;10.77;;;9.10;;
11537;SDS011;50159;49.426;11.182;2022-12-05T17:36:14;8.67;;;7.60;;
11537;SDS011;50159;49.426;11.182;2022-12-05T17:38:42;11.67;;;8.67;;
11537;SDS011;50159;49.426;11.182;2022-12-05T17:41:13;9.70;;;7.90;;
11537;SDS011;50159;49.426;11.182;2022-12-05T17:43:43;9.63;;;8.37;;
11537;SDS011;50159;49.426;11.182;2022-12-05T17:46:12;8.70;;;7.80;;